Time;durP1;ratioP1;P1;durP2;ratioP2;P2;SDS_P1;SDS_P2;PMS_P1;PMS_P2;Temp;Humidity;BMP_temperature;BMP_pressure;BME280_temperature;BME280_humidity;BME280_pressure;Samples;Min_cycle;Max_cycle;Signal;HPM_P1;HPM_P2
2022/02/05 00:00:07;;;;;;;0.82;0.82;;;3.80;99.90;;;;;;5036209;28;20214;-79
2022/02/05 00:02:33;;;;;;;1.92;1.83;;;3.80;99.90;;;;;;5037033;28;20197;-80
2022/02/05 00:05:00;;;;;;;3.55;2.78;;;3.70;99.90;;;;;;5036631;28;20381;-79
2022/02/05 00:07:29;;;;;;;2.45;2.05;;;3.70;99.90;;;;;;5036439;28;20233;-80
2022/02/05 00:10:16;;;;;;;2.13;2.03;;;3.70;99.90;;;;;;5037083;28;20196;-79
2022/02/05 00:12:57;;;;;;;0.70;0.70;;;3.70;99.90;;;;;;5037024;28;20195;-80
2022/02/05 00:15:39;;;;;;;0.90;0.75;;;3.70;99.90;;;;;;5036360;28;20247;-80
2022/02/05 00:40:07;;;;;;;1.75;1.65;;;3.50;99.90;;;;;;5035142;28;20222;-79
2022/02/05 00:42:39;;;;;;;0.50;0.50;;;3.50;99.90;;;;;;5036605;28;20633;-79
2022/02/05 00:45:10;;;;;;;2.78;2.47;;;3.50;99.90;;;;;;5035418;28;20222;-80
2022/02/05 00:47:40;;;;;;;0.50;0.47;;;3.50;99.90;;;;;;5036020;28;20214;-79
2022/02/05 00:50:14;;;;;;;1.40;1.40;;;3.60;99.90;;;;;;5035844;28;20687;-80
2022/02/05 00:52:41;;;;;;;0.60;0.60;;;3.60;99.90;;;;;;5036326;28;20222;-79
2022/02/05 00:55:11;;;;;;;1.02;1.02;;;3.60;99.90;;;;;;5035280;28;20230;-80
2022/02/05 00:57:47;;;;;;;1.05;0.90;;;3.50;99.90;;;;;;5035667;28;20183;-79
2022/02/05 01:00:19;;;;;;;2.35;2.25;;;3.50;99.90;;;;;;5035826;28;20210;-79
2022/02/05 01:02:46;;;;;;;0.50;0.40;;;3.50;99.90;;;;;;5035714;28;20258;-79
2022/02/05 01:05:13;;;;;;;2.47;1.40;;;3.40;99.90;;;;;;5035481;28;20214;-79
2022/02/05 01:07:40;;;;;;;0.63;0.63;;;3.40;99.90;;;;;;5034911;28;20215;-80
2022/02/05 01:10:08;;;;;;;0.65;0.65;;;3.40;99.90;;;;;;5035143;28;20199;-80
2022/02/05 01:12:37;;;;;;;0.50;0.50;;;3.30;99.90;;;;;;5036047;28;20198;-79
2022/02/05 01:15:05;;;;;;;0.65;0.45;;;3.30;99.90;;;;;;5035195;28;20227;-79
2022/02/05 01:17:38;;;;;;;0.85;0.85;;;3.30;99.90;;;;;;5034810;28;20665;-79
2022/02/05 01:20:31;;;;;;;0.50;0.40;;;3.30;99.90;;;;;;5034779;28;20669;-79
2022/02/05 01:23:02;;;;;;;0.50;0.40;;;3.30;99.90;;;;;;5035198;28;20200;-79
2022/02/05 01:25:34;;;;;;;6.90;2.20;;;3.30;99.90;;;;;;5035349;28;20248;-80
2022/02/05 01:28:09;;;;;;;0.50;0.40;;;3.30;99.90;;;;;;5035495;28;20222;-79
2022/02/05 01:30:39;;;;;;;6.03;2.70;;;3.20;99.90;;;;;;5033895;28;20669;-80
2022/02/05 01:33:20;;;;;;;0.50;0.50;;;3.20;99.90;;;;;;5035260;28;20199;-78
2022/02/05 01:36:03;;;;;;;1.02;0.93;;;3.20;99.90;;;;;;5034885;28;20191;-79
2022/02/05 01:50:00;;;;;;;0.60;0.60;;;3.20;99.90;;;;;;5034618;28;20174;-78
2022/02/05 01:52:32;;;;;;;1.65;1.00;;;3.30;99.90;;;;;;5034944;28;20281;-79
2022/02/05 01:55:14;;;;;;;0.50;0.40;;;3.30;99.90;;;;;;5054694;28;20227;-80
2022/02/05 01:57:53;;;;;;;0.50;0.50;;;3.30;99.90;;;;;;5055885;28;20221;-79
2022/02/05 02:06:07;;;;;;;1.23;0.98;;;3.20;99.90;;;;;;5055378;28;20163;-79
2022/02/05 02:11:32;;;;;;;0.55;0.55;;;3.30;99.90;;;;;;5054242;28;20202;-79
2022/02/05 02:17:11;;;;;;;0.60;0.60;;;3.30;99.90;;;;;;5047628;28;20715;-79
2022/02/05 02:19:49;;;;;;;4.18;1.38;;;3.30;99.90;;;;;;5054330;28;20205;-79
2022/02/05 02:22:24;;;;;;;0.50;0.40;;;3.30;99.90;;;;;;5055616;28;20179;-80
2022/02/05 02:25:01;;;;;;;1.10;1.00;;;3.30;99.90;;;;;;5055087;28;20282;-80
2022/02/05 02:27:35;;;;;;;0.50;0.40;;;3.30;99.90;;;;;;5055221;28;20298;-79
2022/02/05 02:30:08;;;;;;;1.15;1.15;;;3.30;99.90;;;;;;5054246;28;20221;-80
2022/02/05 02:32:38;;;;;;;2.45;2.25;;;3.30;99.90;;;;;;5039259;28;20191;-78
2022/02/05 02:35:10;;;;;;;0.50;0.47;;;3.30;99.90;;;;;;5034140;28;20214;-80
2022/02/05 02:37:46;;;;;;;0.60;0.60;;;3.30;99.90;;;;;;5034496;28;20214;-79
2022/02/05 02:40:23;;;;;;;0.50;0.47;;;3.30;99.90;;;;;;5032605;28;20249;-79
2022/02/05 02:42:53;;;;;;;0.50;0.40;;;3.20;99.90;;;;;;5038116;28;20194;-80
2022/02/05 02:45:20;;;;;;;1.55;0.85;;;3.20;99.90;;;;;;5045124;28;20273;-79
2022/02/05 02:47:47;;;;;;;1.15;0.82;;;3.20;99.90;;;;;;5041744;28;20270;-79
2022/02/05 02:50:27;;;;;;;0.50;0.47;;;3.20;99.90;;;;;;5044143;28;20198;-80
2022/02/05 02:58:28;;;;;;;0.88;0.82;;;3.30;99.90;;;;;;5034419;28;20367;-79
2022/02/05 03:00:57;;;;;;;0.65;0.40;;;3.30;99.90;;;;;;5033158;28;20196;-79
2022/02/05 03:03:24;;;;;;;0.75;0.68;;;3.30;99.90;;;;;;5033048;28;20661;-79
2022/02/05 03:05:51;;;;;;;0.50;0.40;;;3.30;99.90;;;;;;5033240;28;20195;-80
2022/02/05 03:08:19;;;;;;;0.50;0.40;;;3.30;99.90;;;;;;5033699;28;20268;-80
2022/02/05 03:10:46;;;;;;;1.95;1.40;;;3.30;99.90;;;;;;5032972;28;20256;-79
2022/02/05 03:13:12;;;;;;;0.50;0.50;;;3.30;99.90;;;;;;5033434;28;20696;-80
2022/02/05 03:15:41;;;;;;;0.50;0.40;;;3.30;99.90;;;;;;5033441;28;20230;-79
2022/02/05 03:18:12;;;;;;;0.70;0.60;;;3.30;99.90;;;;;;5033237;28;20187;-79
2022/02/05 03:20:39;;;;;;;0.80;0.50;;;3.30;99.90;;;;;;5035578;28;20186;-80
2022/02/05 03:23:06;;;;;;;7.22;1.30;;;3.30;99.90;;;;;;5053721;28;20187;-79
2022/02/05 03:25:35;;;;;;;2.13;1.10;;;3.40;99.90;;;;;;5054333;28;20230;-79
2022/02/05 03:28:03;;;;;;;0.70;0.70;;;3.30;99.90;;;;;;5054208;28;20203;-80
2022/02/05 03:30:30;;;;;;;3.95;2.15;;;3.30;99.90;;;;;;5053591;28;20179;-77
2022/02/05 03:32:58;;;;;;;0.52;0.52;;;3.30;99.90;;;;;;5054733;28;20199;-80
2022/02/05 03:35:25;;;;;;;0.65;0.65;;;3.30;99.90;;;;;;5054244;28;20283;-80
2022/02/05 03:37:52;;;;;;;0.63;0.63;;;3.30;99.90;;;;;;5055071;28;20180;-80
2022/02/05 03:40:18;;;;;;;0.70;0.70;;;3.30;99.90;;;;;;5053988;28;20214;-80
2022/02/05 03:42:46;;;;;;;1.10;1.10;;;3.20;99.90;;;;;;5054174;28;20182;-79
2022/02/05 03:45:14;;;;;;;0.50;0.40;;;3.30;99.90;;;;;;5054474;28;20212;-79
2022/02/05 03:47:41;;;;;;;0.80;0.80;;;3.40;99.90;;;;;;5052796;28;20234;-79
2022/02/05 03:50:09;;;;;;;0.50;0.40;;;3.50;99.90;;;;;;5033796;28;20203;-80
2022/02/05 03:52:36;;;;;;;1.13;1.08;;;3.60;99.90;;;;;;5035253;28;20253;-78
2022/02/05 03:55:03;;;;;;;0.50;0.40;;;3.70;99.90;;;;;;5036753;28;20223;-80
2022/02/05 03:57:30;;;;;;;3.78;1.00;;;3.70;99.90;;;;;;5037033;28;20222;-79
2022/02/05 03:59:58;;;;;;;0.93;0.65;;;3.70;99.90;;;;;;5036791;28;20203;-79
2022/02/05 04:02:25;;;;;;;1.15;0.68;;;3.80;99.90;;;;;;5036755;28;20486;-79
2022/02/05 04:04:52;;;;;;;0.50;0.40;;;3.80;99.90;;;;;;5036822;28;20275;-79
2022/02/05 04:07:19;;;;;;;6.82;1.95;;;3.90;99.90;;;;;;5036075;28;20224;-80
2022/02/05 04:09:47;;;;;;;2.97;1.70;;;3.80;99.90;;;;;;5036375;28;20199;-79
2022/02/05 04:17:43;;;;;;;2.15;0.70;;;3.70;99.90;;;;;;5035507;28;20564;-79
2022/02/05 04:20:10;;;;;;;3.20;2.25;;;3.60;99.90;;;;;;5036508;28;20191;-79
2022/02/05 04:22:37;;;;;;;3.70;3.35;;;3.70;99.90;;;;;;5036450;28;20199;-79
2022/02/05 04:25:04;;;;;;;0.50;0.50;;;3.70;99.90;;;;;;5036842;28;20227;-80
2022/02/05 04:27:30;;;;;;;0.70;0.70;;;3.70;99.90;;;;;;5036601;28;20219;-79
2022/02/05 04:29:58;;;;;;;1.88;1.77;;;3.70;99.90;;;;;;5036175;28;20553;-79
2022/02/05 04:32:25;;;;;;;0.50;0.40;;;3.70;99.90;;;;;;5036364;28;20206;-79
2022/02/05 04:34:52;;;;;;;1.50;1.40;;;3.70;99.90;;;;;;5036339;28;20219;-79
2022/02/05 04:37:21;;;;;;;2.25;0.63;;;3.70;99.90;;;;;;5036331;28;20196;-80
2022/02/05 04:39:56;;;;;;;0.50;0.43;;;3.80;99.90;;;;;;5035925;28;20269;-79
2022/02/05 04:42:34;;;;;;;2.55;0.82;;;3.70;99.90;;;;;;5036288;28;20565;-80
2022/02/05 04:45:26;;;;;;;2.28;2.08;;;3.80;99.90;;;;;;5036078;28;20723;-80
2022/02/05 04:48:18;;;;;;;2.05;1.63;;;3.80;99.90;;;;;;5036364;28;20211;-80
2022/02/05 04:51:10;;;;;;;0.70;0.70;;;3.80;99.90;;;;;;5035549;28;20210;-80
2022/02/05 04:53:52;;;;;;;1.48;1.38;;;3.80;99.90;;;;;;5035735;28;20194;-80
2022/02/05 04:56:31;;;;;;;5.47;1.05;;;3.80;99.90;;;;;;5035691;28;20270;-80
2022/02/05 04:59:23;;;;;;;1.88;1.77;;;3.70;99.90;;;;;;5035213;28;20195;-78
2022/02/05 05:02:14;;;;;;;0.50;0.40;;;3.80;99.90;;;;;;5035717;28;20195;-79
2022/02/05 05:04:47;;;;;;;0.50;0.50;;;3.70;99.90;;;;;;5034765;28;20314;-79
2022/02/05 05:10:03;;;;;;;0.93;0.93;;;3.60;99.90;;;;;;5035147;28;20687;-80
2022/02/05 05:12:37;;;;;;;0.50;0.40;;;3.50;99.90;;;;;;5035255;28;20260;-80
2022/02/05 05:15:33;;;;;;;0.50;0.50;;;3.50;99.90;;;;;;5035208;28;20634;-79
2022/02/05 05:20:57;;;;;;;0.50;0.50;;;3.30;99.90;;;;;;5035563;28;20278;-80
2022/02/05 05:23:24;;;;;;;0.70;0.70;;;3.30;99.90;;;;;;5036366;28;20195;-79
2022/02/05 05:25:51;;;;;;;2.53;2.30;;;3.30;99.90;;;;;;5035480;28;20597;-80
2022/02/05 05:28:18;;;;;;;0.82;0.82;;;3.20;99.90;;;;;;5034475;28;20268;-80
2022/02/05 05:30:44;;;;;;;0.80;0.75;;;3.20;99.90;;;;;;5034974;28;20202;-79
2022/02/05 05:33:12;;;;;;;0.70;0.57;;;3.20;99.90;;;;;;5034745;28;20206;-80
2022/02/05 05:35:40;;;;;;;2.65;1.55;;;3.20;99.90;;;;;;5034877;28;20895;-79
2022/02/05 05:38:07;;;;;;;0.50;0.40;;;3.20;99.90;;;;;;5034780;28;20195;-80
2022/02/05 05:40:36;;;;;;;0.50;0.40;;;3.10;99.90;;;;;;5034443;28;20206;-80
2022/02/05 05:43:05;;;;;;;0.70;0.63;;;3.10;99.90;;;;;;5035311;28;20195;-80
2022/02/05 05:46:00;;;;;;;0.85;0.85;;;3.20;99.90;;;;;;5034553;28;20218;-79
2022/02/05 05:48:30;;;;;;;0.50;0.40;;;3.20;99.90;;;;;;5034046;28;20207;-79
2022/02/05 05:51:00;;;;;;;1.20;1.10;;;3.30;99.90;;;;;;5034627;28;20269;-80
2022/02/05 05:53:28;;;;;;;2.08;0.80;;;3.30;99.90;;;;;;5034316;28;20209;-79
2022/02/05 05:55:58;;;;;;;1.15;0.80;;;3.30;99.90;;;;;;5098729;22;20221;-80
2022/02/05 05:58:25;;;;;;;0.50;0.45;;;3.30;99.90;;;;;;5047378;28;20289;-80
2022/02/05 06:00:51;;;;;;;0.80;0.80;;;3.40;99.90;;;;;;5055418;28;20197;-78
2022/02/05 06:03:19;;;;;;;0.50;0.40;;;3.40;99.90;;;;;;5056667;28;20226;-80
2022/02/05 06:05:47;;;;;;;1.23;1.05;;;3.50;99.90;;;;;;5056860;28;20222;-80
2022/02/05 06:08:15;;;;;;;3.00;1.77;;;3.50;99.90;;;;;;5055845;28;20221;-80
2022/02/05 06:10:43;;;;;;;0.50;0.40;;;3.50;99.90;;;;;;5056020;28;20222;-80
2022/02/05 06:13:10;;;;;;;1.17;0.82;;;3.50;99.90;;;;;;5055666;28;20300;-80
2022/02/05 06:15:38;;;;;;;0.50;0.40;;;3.60;99.90;;;;;;5055733;28;20238;-82
2022/02/05 06:18:05;;;;;;;0.90;0.90;;;3.60;99.90;;;;;;5055775;28;20201;-80
2022/02/05 06:20:31;;;;;;;0.50;0.50;;;3.60;99.90;;;;;;5056868;28;20191;-80
2022/02/05 06:22:59;;;;;;;4.47;4.13;;;3.70;99.90;;;;;;5056269;28;20212;-80
2022/02/05 06:25:27;;;;;;;0.60;0.50;;;3.70;99.90;;;;;;5055536;28;20222;-80
2022/02/05 06:27:53;;;;;;;0.77;0.77;;;3.70;99.90;;;;;;5055276;28;20627;-80
2022/02/05 06:30:20;;;;;;;0.50;0.43;;;3.70;99.90;;;;;;5055341;28;20220;-80
2022/02/05 06:32:47;;;;;;;0.57;0.57;;;3.70;99.90;;;;;;5056004;28;20195;-80
2022/02/05 06:35:13;;;;;;;0.52;0.50;;;3.70;99.90;;;;;;5055837;28;20229;-80
2022/02/05 06:37:40;;;;;;;0.60;0.60;;;3.70;99.90;;;;;;5055531;28;20198;-80
2022/02/05 06:40:10;;;;;;;1.25;1.17;;;3.70;99.90;;;;;;5055968;28;20198;-80
2022/02/05 06:42:36;;;;;;;0.75;0.68;;;3.70;99.90;;;;;;5055386;28;20249;-79
2022/02/05 06:45:04;;;;;;;0.50;0.40;;;3.70;99.90;;;;;;5055488;28;20214;-77
2022/02/05 06:47:31;;;;;;;0.50;0.50;;;3.70;99.90;;;;;;5055954;28;20226;-80
2022/02/05 06:49:58;;;;;;;0.50;0.40;;;3.60;99.90;;;;;;5055557;28;20681;-80
2022/02/05 06:52:25;;;;;;;0.50;0.40;;;3.60;99.90;;;;;;5055919;28;20286;-80
2022/02/05 06:54:51;;;;;;;0.85;0.85;;;3.70;99.90;;;;;;5056328;28;20276;-81
2022/02/05 06:57:19;;;;;;;0.50;0.40;;;3.70;99.90;;;;;;5055579;28;20194;-80
2022/02/05 06:59:46;;;;;;;1.25;1.25;;;3.70;99.90;;;;;;5055742;28;20199;-80
2022/02/05 07:02:13;;;;;;;1.60;1.02;;;3.70;99.90;;;;;;5055217;28;20190;-79
2022/02/05 07:04:39;;;;;;;1.23;1.10;;;3.70;99.90;;;;;;5055562;28;20276;-80
2022/02/05 07:07:06;;;;;;;0.60;0.60;;;3.80;99.90;;;;;;5055760;28;20198;-78
2022/02/05 07:09:33;;;;;;;1.45;1.45;;;3.70;99.90;;;;;;5054714;28;20203;-80
2022/02/05 07:12:00;;;;;;;0.80;0.70;;;3.70;99.90;;;;;;5054662;28;20549;-81
2022/02/05 07:14:34;;;;;;;9.43;3.53;;;3.70;99.90;;;;;;5055588;28;20222;-82
2022/02/05 07:17:07;;;;;;;0.50;0.40;;;3.70;99.90;;;;;;5055685;28;20214;-81
2022/02/05 07:19:46;;;;;;;0.50;0.50;;;3.70;99.90;;;;;;5053541;28;20228;-81
2022/02/05 07:22:13;;;;;;;0.57;0.55;;;3.70;99.90;;;;;;5055353;28;20205;-79
2022/02/05 07:24:58;;;;;;;1.90;0.95;;;3.70;99.90;;;;;;5054506;28;20218;-81
2022/02/05 07:30:11;;;;;;;0.85;0.82;;;3.60;99.90;;;;;;5058548;28;20252;-81
2022/02/05 07:32:37;;;;;;;5.47;1.80;;;3.60;99.90;;;;;;5059374;28;20255;-81
2022/02/05 07:35:05;;;;;;;6.90;2.08;;;3.60;99.90;;;;;;5059362;28;20214;-78
2022/02/05 07:37:32;;;;;;;0.77;0.77;;;3.60;99.90;;;;;;5059012;28;20187;-82
2022/02/05 07:39:58;;;;;;;2.70;1.35;;;3.60;99.90;;;;;;5058040;28;20199;-82
2022/02/05 07:42:26;;;;;;;2.08;1.65;;;3.60;99.90;;;;;;5058708;28;20191;-81
2022/02/05 07:44:52;;;;;;;1.35;1.25;;;3.60;99.90;;;;;;5059039;28;20215;-81
2022/02/05 07:47:22;;;;;;;0.75;0.40;;;3.60;99.90;;;;;;5059222;28;20271;-81
2022/02/05 07:49:49;;;;;;;0.70;0.68;;;3.70;99.90;;;;;;5059117;28;20205;-82
2022/02/05 07:52:16;;;;;;;1.85;1.77;;;3.70;99.90;;;;;;5059537;28;20206;-79
2022/02/05 07:54:43;;;;;;;0.68;0.68;;;3.70;99.90;;;;;;5058051;28;20219;-81
2022/02/05 07:57:09;;;;;;;0.50;0.40;;;3.70;99.90;;;;;;5058357;28;20198;-82
2022/02/05 07:59:36;;;;;;;15.68;1.10;;;3.80;99.90;;;;;;5058144;28;20664;-80
2022/02/05 08:02:03;;;;;;;1.42;1.30;;;3.80;99.90;;;;;;5058845;28;20619;-81
2022/02/05 08:04:32;;;;;;;0.60;0.50;;;3.70;99.90;;;;;;5058482;28;20216;-80
2022/02/05 08:07:01;;;;;;;0.70;0.60;;;3.70;99.90;;;;;;5058604;28;20216;-81
2022/02/05 08:09:40;;;;;;;1.48;1.45;;;3.80;99.90;;;;;;5057480;28;20226;-81
2022/02/05 08:12:10;;;;;;;0.50;0.40;;;3.80;99.90;;;;;;5058814;28;20555;-81
2022/02/05 08:14:42;;;;;;;0.68;0.68;;;3.90;99.90;;;;;;5058526;28;20696;-81
2022/02/05 08:17:17;;;;;;;2.30;1.70;;;4.00;99.90;;;;;;5058428;28;20205;-81
2022/02/05 08:19:45;;;;;;;13.60;1.50;;;4.20;99.90;;;;;;5057883;28;20529;-80
2022/02/05 08:22:12;;;;;;;0.50;0.40;;;4.60;99.90;;;;;;5058094;28;20194;-81
2022/02/05 08:24:39;;;;;;;0.50;0.50;;;4.70;99.90;;;;;;5058082;28;20222;-80
2022/02/05 08:27:06;;;;;;;1.08;0.80;;;5.10;99.90;;;;;;5058292;28;20202;-82
2022/02/05 08:29:34;;;;;;;3.58;1.48;;;5.80;99.90;;;;;;5057545;28;20773;-81
2022/02/05 08:32:01;;;;;;;6.13;1.63;;;6.40;99.90;;;;;;5057793;28;20191;-82
2022/02/05 08:34:28;;;;;;;1.25;1.25;;;6.10;99.90;;;;;;5057392;28;20219;-82
2022/02/05 08:36:57;;;;;;;2.35;1.20;;;5.80;99.90;;;;;;5057755;28;20709;-80
2022/02/05 08:39:24;;;;;;;2.20;2.10;;;5.30;99.90;;;;;;5056079;28;20244;-80
2022/02/05 08:41:51;;;;;;;0.60;0.50;;;5.00;99.90;;;;;;5058293;28;20203;-82
2022/02/05 08:44:18;;;;;;;0.50;0.40;;;5.00;99.90;;;;;;5058327;28;20198;-82
2022/02/05 08:46:46;;;;;;;0.68;0.60;;;5.20;99.90;;;;;;5058108;28;20202;-80
2022/02/05 08:49:12;;;;;;;0.98;0.98;;;5.20;99.90;;;;;;5057337;28;20211;-81
2022/02/05 08:51:39;;;;;;;0.60;0.60;;;6.10;99.90;;;;;;5057643;28;20195;-81
2022/02/05 08:54:07;;;;;;;0.82;0.82;;;7.20;99.90;;;;;;5057877;28;20205;-82
2022/02/05 08:56:34;;;;;;;0.93;0.88;;;8.10;99.90;;;;;;5057524;28;20224;-81
2022/02/05 08:59:02;;;;;;;7.65;1.45;;;9.30;99.90;;;;;;5057074;28;20198;-83
2022/02/05 09:01:41;;;;;;;0.85;0.85;;;9.80;99.90;;;;;;5057556;28;20208;-82
2022/02/05 09:04:16;;;;;;;0.68;0.68;;;9.70;99.90;;;;;;5057362;28;20732;-82
2022/02/05 09:06:46;;;;;;;0.70;0.50;;;9.70;99.90;;;;;;5057363;28;20205;-81
2022/02/05 09:09:22;;;;;;;0.50;0.40;;;9.40;99.90;;;;;;5057276;28;20217;-79
2022/02/05 09:11:55;;;;;;;0.60;0.60;;;8.90;99.90;;;;;;5057317;28;20208;-82
2022/02/05 09:14:29;;;;;;;0.50;0.40;;;9.20;99.90;;;;;;5058135;28;20181;-81
2022/02/05 09:16:56;;;;;;;3.40;1.75;;;9.00;99.90;;;;;;5057981;28;20646;-82
2022/02/05 09:19:23;;;;;;;1.20;1.20;;;8.00;99.90;;;;;;5056626;28;20602;-82
2022/02/05 09:21:50;;;;;;;2.05;1.92;;;7.30;99.90;;;;;;5056940;28;20208;-81
2022/02/05 09:24:18;;;;;;;0.50;0.50;;;7.40;99.90;;;;;;5056569;28;20326;-82
2022/02/05 09:26:49;;;;;;;0.50;0.40;;;8.10;99.90;;;;;;5057924;28;20211;-81
2022/02/05 09:29:19;;;;;;;2.35;1.05;;;8.70;99.90;;;;;;5056323;28;20204;-81
2022/02/05 09:31:47;;;;;;;1.35;0.60;;;8.20;99.90;;;;;;5057270;28;20265;-79
2022/02/05 09:34:13;;;;;;;6.05;2.40;;;7.70;99.90;;;;;;5057317;28;20204;-81
2022/02/05 09:36:41;;;;;;;1.13;1.02;;;7.00;99.90;;;;;;5056825;28;20258;-80
2022/02/05 09:39:07;;;;;;;9.70;1.88;;;6.40;99.90;;;;;;5054940;28;20194;-81
2022/02/05 09:41:36;;;;;;;2.25;0.95;;;6.30;99.90;;;;;;5057015;28;20241;-80
2022/02/05 09:44:04;;;;;;;3.20;1.08;;;6.40;99.90;;;;;;5056364;28;20203;-82
2022/02/05 09:46:30;;;;;;;0.60;0.50;;;7.00;99.90;;;;;;5057689;28;20251;-81
2022/02/05 09:48:58;;;;;;;0.60;0.60;;;8.20;99.90;;;;;;5056335;28;20765;-79
2022/02/05 09:51:26;;;;;;;0.63;0.63;;;8.80;99.90;;;;;;5056533;28;20198;-82
2022/02/05 09:53:55;;;;;;;3.90;0.90;;;8.60;99.90;;;;;;5056156;28;20240;-82
2022/02/05 09:56:23;;;;;;;4.10;1.05;;;8.30;99.90;;;;;;5056349;28;20224;-80
2022/02/05 09:58:52;;;;;;;0.50;0.40;;;8.50;99.90;;;;;;5055919;28;20194;-81
2022/02/05 10:01:22;;;;;;;0.50;0.40;;;8.70;99.90;;;;;;5056293;28;20194;-81
2022/02/05 10:03:50;;;;;;;0.50;0.40;;;9.00;99.90;;;;;;5055783;28;20296;-81
2022/02/05 10:06:21;;;;;;;0.80;0.80;;;8.90;99.90;;;;;;5056590;28;20217;-82
2022/02/05 10:08:56;;;;;;;0.90;0.75;;;8.70;99.90;;;;;;5056958;28;20206;-78
2022/02/05 10:11:23;;;;;;;0.50;0.40;;;8.30;99.90;;;;;;5056791;28;20186;-81
2022/02/05 10:13:51;;;;;;;0.50;0.40;;;8.60;99.90;;;;;;5056464;28;20200;-81
2022/02/05 10:16:29;;;;;;;0.50;0.40;;;8.40;99.90;;;;;;5056456;28;20222;-80
2022/02/05 10:18:57;;;;;;;0.60;0.50;;;8.10;99.90;;;;;;5055480;28;20713;-82
2022/02/05 10:21:26;;;;;;;0.90;0.63;;;8.10;99.90;;;;;;5056856;28;20272;-82
2022/02/05 10:24:01;;;;;;;0.50;0.40;;;8.10;99.90;;;;;;5056326;28;20200;-81
2022/02/05 10:26:30;;;;;;;1.83;0.75;;;8.20;99.90;;;;;;5056449;28;20606;-82
2022/02/05 10:29:06;;;;;;;1.70;1.02;;;8.10;99.90;;;;;;5055544;28;20217;-82
2022/02/05 10:31:56;;;;;;;0.50;0.40;;;8.30;99.90;;;;;;5056218;28;20222;-82
2022/02/05 10:34:23;;;;;;;0.85;0.85;;;8.30;99.90;;;;;;5055643;28;20200;-81
2022/02/05 10:37:12;;;;;;;0.85;0.60;;;8.10;99.90;;;;;;5056768;28;20201;-80
2022/02/05 10:39:53;;;;;;;0.50;0.40;;;8.40;99.90;;;;;;5055715;28;20189;-81
2022/02/05 10:45:09;;;;;;;0.95;0.95;;;9.10;99.90;;;;;;5055995;28;20217;-78
2022/02/05 10:47:53;;;;;;;0.68;0.68;;;8.90;99.90;;;;;;5055233;28;20201;-80
2022/02/05 10:50:22;;;;;;;0.70;0.70;;;9.00;99.90;;;;;;5055796;28;20224;-81
2022/02/05 10:52:53;;;;;;;2.35;1.10;;;9.10;99.90;;;;;;5056518;28;20198;-81
2022/02/05 10:55:23;;;;;;;2.00;0.90;;;9.10;99.90;;;;;;5055538;28;20737;-81
2022/02/05 10:58:10;;;;;;;0.50;0.40;;;9.10;99.90;;;;;;5056447;28;20209;-82
2022/02/05 11:06:10;;;;;;;1.25;0.70;;;8.20;99.90;;;;;;5056082;28;20340;-81
2022/02/05 11:08:38;;;;;;;5.07;1.25;;;7.90;99.90;;;;;;5056506;28;20214;-82
2022/02/05 11:14:11;;;;;;;0.80;0.80;;;7.30;99.90;;;;;;5056096;28;20283;-82
2022/02/05 11:19:26;;;;;;;0.50;0.40;;;7.10;99.90;;;;;;5021972;28;20195;-82
2022/02/05 11:21:53;;;;;;;0.50;0.45;;;7.00;99.90;;;;;;5055545;28;20200;-80
2022/02/05 11:24:25;;;;;;;2.35;1.25;;;7.20;99.90;;;;;;5055962;28;20205;-80
2022/02/05 11:26:53;;;;;;;3.58;1.52;;;7.30;99.90;;;;;;5055300;28;20291;-81
2022/02/05 11:29:31;;;;;;;2.65;1.25;;;7.40;99.90;;;;;;5055105;28;20643;-80
2022/02/05 11:32:21;;;;;;;0.50;0.40;;;7.60;99.90;;;;;;5055482;28;20206;-82
2022/02/05 11:35:04;;;;;;;0.70;0.70;;;7.60;99.90;;;;;;5058890;28;20218;-81
2022/02/05 11:37:31;;;;;;;3.15;1.05;;;7.80;99.90;;;;;;5056535;28;20178;-80
2022/02/05 11:39:57;;;;;;;1.13;1.08;;;7.90;99.90;;;;;;5055380;28;20197;-82
2022/02/05 11:42:30;;;;;;;1.00;0.60;;;7.90;99.90;;;;;;5055811;28;20202;-81
2022/02/05 11:44:58;;;;;;;0.82;0.68;;;7.60;99.90;;;;;;5055749;28;20260;-82
2022/02/05 11:47:33;;;;;;;0.50;0.40;;;7.40;99.90;;;;;;5055344;28;20549;-81
2022/02/05 11:50:23;;;;;;;0.70;0.50;;;7.50;99.90;;;;;;5055773;28;20225;-79
2022/02/05 11:52:57;;;;;;;0.50;0.40;;;7.60;99.90;;;;;;5055457;28;20185;-81
2022/02/05 11:55:39;;;;;;;0.50;0.50;;;7.60;99.90;;;;;;5055231;28;20226;-82
2022/02/05 11:58:08;;;;;;;0.50;0.40;;;7.60;99.90;;;;;;5056398;28;20245;-81
2022/02/05 12:00:37;;;;;;;1.52;1.30;;;7.60;99.90;;;;;;5054764;28;20200;-81
2022/02/05 12:03:34;;;;;;;0.90;0.80;;;7.60;99.90;;;;;;5055644;28;20198;-80
2022/02/05 12:06:07;;;;;;;1.02;0.70;;;7.50;99.90;;;;;;5055089;28;20233;-82
2022/02/05 12:08:37;;;;;;;0.50;0.40;;;7.50;99.90;;;;;;5055055;28;20212;-81
2022/02/05 12:11:24;;;;;;;0.60;0.50;;;7.60;99.90;;;;;;5055796;28;20201;-81
2022/02/05 12:14:12;;;;;;;0.90;0.77;;;7.60;99.90;;;;;;5057564;28;20186;-82
2022/02/05 12:16:39;;;;;;;1.02;0.95;;;7.60;99.90;;;;;;5058778;28;20192;-82
2022/02/05 12:19:16;;;;;;;2.35;0.93;;;7.40;99.90;;;;;;5057864;28;20200;-82
2022/02/05 12:21:58;;;;;;;1.15;1.05;;;7.60;99.90;;;;;;5058956;28;20182;-82
2022/02/05 12:24:39;;;;;;;0.50;0.50;;;7.70;99.90;;;;;;5058433;28;20252;-81
2022/02/05 12:27:30;;;;;;;0.63;0.55;;;7.90;99.90;;;;;;5058293;28;20243;-81
2022/02/05 12:30:42;;;;;;;0.63;0.63;;;8.20;99.90;;;;;;5058651;28;20280;-83
2022/02/05 12:33:10;;;;;;;0.82;0.68;;;8.10;99.90;;;;;;5043453;28;20205;-82
2022/02/05 12:35:51;;;;;;;0.98;0.60;;;7.70;99.90;;;;;;5058857;28;20264;-83
2022/02/05 12:38:18;;;;;;;1.10;0.77;;;7.60;99.90;;;;;;5058869;28;20216;-80
2022/02/05 12:40:47;;;;;;;3.45;2.35;;;7.50;99.90;;;;;;5058268;28;20197;-81
2022/02/05 12:43:14;;;;;;;1.38;0.80;;;7.50;99.90;;;;;;5058807;28;20197;-82
2022/02/05 12:45:50;;;;;;;1.20;0.90;;;7.70;99.90;;;;;;5058288;28;20716;-83
2022/02/05 12:48:22;;;;;;;1.65;1.20;;;7.70;99.90;;;;;;5059962;28;20626;-83
2022/02/05 12:50:51;;;;;;;6.75;1.95;;;7.80;99.90;;;;;;5057623;28;20698;-81
2022/02/05 12:53:18;;;;;;;2.58;2.05;;;7.90;99.90;;;;;;5057576;28;20198;-79
2022/02/05 12:55:46;;;;;;;0.50;0.40;;;8.10;99.90;;;;;;5057462;28;20235;-82
2022/02/05 12:58:17;;;;;;;0.88;0.82;;;8.30;99.90;;;;;;5058157;28;20244;-81
2022/02/05 13:00:44;;;;;;;1.08;0.98;;;8.20;99.90;;;;;;5057691;28;20583;-83
2022/02/05 13:03:25;;;;;;;1.45;1.17;;;8.10;99.90;;;;;;5058325;28;20206;-82
2022/02/05 13:05:54;;;;;;;2.40;1.23;;;8.20;99.90;;;;;;5058092;28;20224;-81
2022/02/05 13:08:21;;;;;;;3.25;0.70;;;8.30;99.90;;;;;;5058496;28;20193;-82
2022/02/05 13:10:49;;;;;;;0.57;0.57;;;8.30;99.90;;;;;;5058075;28;20424;-83
2022/02/05 13:13:16;;;;;;;1.30;1.30;;;8.10;99.90;;;;;;5058951;28;20201;-83
2022/02/05 13:15:42;;;;;;;0.55;0.47;;;8.10;99.90;;;;;;5057940;28;20218;-81
2022/02/05 13:18:20;;;;;;;0.93;0.70;;;8.00;99.90;;;;;;5057399;28;20202;-81
2022/02/05 13:26:25;;;;;;;0.50;0.40;;;7.60;99.90;;;;;;5056811;28;20225;-81
2022/02/05 13:29:18;;;;;;;0.50;0.40;;;7.50;99.90;;;;;;5058031;28;20259;-80
2022/02/05 13:34:33;;;;;;;0.50;0.40;;;7.70;99.90;;;;;;5057830;28;20293;-82
2022/02/05 13:37:09;;;;;;;0.50;0.50;;;8.10;99.90;;;;;;5057451;28;20201;-81
2022/02/05 13:39:48;;;;;;;2.20;2.00;;;8.20;99.90;;;;;;5057094;28;20564;-81
2022/02/05 13:42:19;;;;;;;0.60;0.50;;;8.20;99.90;;;;;;5057238;28;20229;-82
2022/02/05 13:44:55;;;;;;;0.93;0.93;;;8.00;99.90;;;;;;5057032;28;20213;-82
2022/02/05 13:47:23;;;;;;;0.50;0.50;;;7.90;99.90;;;;;;5056692;28;20216;-82
2022/02/05 13:50:05;;;;;;;0.70;0.68;;;7.60;99.90;;;;;;5057149;28;20695;-81
2022/02/05 13:52:37;;;;;;;0.70;0.70;;;7.50;99.90;;;;;;5057747;28;20259;-82
2022/02/05 13:55:20;;;;;;;2.90;0.70;;;7.60;99.90;;;;;;5057794;28;20231;-81
2022/02/05 13:58:02;;;;;;;2.83;0.80;;;7.60;99.90;;;;;;5057357;28;20190;-81
2022/02/05 14:00:47;;;;;;;0.50;0.40;;;7.90;99.90;;;;;;5056811;28;20189;-83
2022/02/05 14:03:16;;;;;;;3.38;3.08;;;8.40;99.90;;;;;;5057429;28;20251;-80
2022/02/05 14:05:59;;;;;;;19.42;1.40;;;8.60;99.90;;;;;;5056815;28;20751;-81
2022/02/05 14:08:26;;;;;;;0.77;0.65;;;8.30;99.90;;;;;;5056709;28;20261;-81
2022/02/05 14:10:59;;;;;;;0.50;0.40;;;8.00;99.90;;;;;;5056311;28;20257;-82
2022/02/05 14:13:26;;;;;;;0.50;0.40;;;7.90;99.90;;;;;;5056566;28;20197;-81
2022/02/05 14:15:55;;;;;;;0.60;0.50;;;7.80;99.90;;;;;;5056967;28;20226;-79
2022/02/05 14:18:23;;;;;;;1.15;0.77;;;7.90;99.90;;;;;;5056142;28;20207;-81
2022/02/05 14:20:51;;;;;;;0.60;0.50;;;7.60;99.90;;;;;;5056426;28;20198;-82
2022/02/05 14:23:20;;;;;;;1.00;0.90;;;7.50;99.90;;;;;;5055727;28;20734;-79
2022/02/05 14:25:59;;;;;;;0.70;0.70;;;7.40;99.90;;;;;;5057146;28;20224;-81
2022/02/05 14:28:34;;;;;;;0.50;0.40;;;7.50;99.90;;;;;;5056252;28;20247;-82
2022/02/05 14:31:16;;;;;;;0.80;0.68;;;8.00;99.90;;;;;;5055446;28;20680;-81
2022/02/05 14:34:01;;;;;;;1.88;0.70;;;8.20;99.90;;;;;;5055709;28;20591;-82
2022/02/05 14:36:46;;;;;;;0.50;0.50;;;8.10;99.90;;;;;;5056173;28;20214;-82
2022/02/05 14:42:00;;;;;;;2.88;1.63;;;8.00;99.90;;;;;;5055824;28;20236;-82
2022/02/05 14:44:28;;;;;;;1.98;1.70;;;7.80;99.90;;;;;;5055560;28;20272;-82
2022/02/05 14:46:55;;;;;;;0.68;0.68;;;7.60;99.90;;;;;;5055867;28;20255;-81
2022/02/05 14:49:22;;;;;;;0.60;0.55;;;7.60;99.90;;;;;;5055327;28;20773;-82